Time;durP1;ratioP1;P1;durP2;ratioP2;P2;SDS_P1;SDS_P2;PMS_P1;PMS_P2;Temp;Humidity;BMP_temperature;BMP_pressure;BME280_temperature;BME280_humidity;BME280_pressure;Samples;Min_cycle;Max_cycle;Signal;HPM_P1;HPM_P2
2023/12/07 00:01:05;;;;;;;9.47;4.80;;;3.20;99.90;;;;;;4968626;28;20227;-85
2023/12/07 00:03:30;;;;;;;17.23;6.32;;;;;;;;;;4983060;28;20190;-85
2023/12/07 00:05:56;;;;;;;13.03;6.90;;;3.20;99.90;;;;;;4985605;28;20215;-86
2023/12/07 00:08:22;;;;;;;6.13;4.40;;;3.10;99.90;;;;;;4987229;28;20794;-84
2023/12/07 00:10:47;;;;;;;7.20;4.63;;;3.10;99.90;;;;;;4968169;28;20240;-83
2023/12/07 00:13:13;;;;;;;7.40;4.33;;;;;;;;;;4986320;28;20195;-84
2023/12/07 00:15:39;;;;;;;7.97;2.70;;;;;;;;;;4989375;28;20199;-84
2023/12/07 00:18:05;;;;;;;10.52;4.03;;;3.20;99.90;;;;;;4987813;28;20495;-84
2023/12/07 00:20:31;;;;;;;10.13;4.90;;;;;;;;;;4990358;28;20242;-84
2023/12/07 00:22:57;;;;;;;6.03;3.03;;;;;;;;;;4990607;28;20499;-85
2023/12/07 00:25:22;;;;;;;3.80;2.97;;;3.20;99.90;;;;;;4988539;28;20438;-85
2023/12/07 00:27:49;;;;;;;5.10;3.53;;;3.20;99.90;;;;;;4971915;28;20789;-85
2023/12/07 00:30:15;;;;;;;8.38;4.30;;;3.20;99.90;;;;;;4974374;28;20972;-84
2023/12/07 00:32:44;;;;;;;11.93;4.07;;;;;;;;;;4977902;28;20255;-85
2023/12/07 00:35:10;;;;;;;5.97;3.95;;;3.20;99.90;;;;;;4983363;28;20280;-85
2023/12/07 00:37:36;;;;;;;10.75;6.10;;;3.10;99.90;;;;;;4984036;28;20187;-85
2023/12/07 00:40:02;;;;;;;6.90;4.77;;;3.10;99.90;;;;;;4982879;28;20281;-85
2023/12/07 00:42:27;;;;;;;6.73;4.10;;;3.10;99.90;;;;;;4980063;28;20184;-85
2023/12/07 00:44:54;;;;;;;4.50;2.60;;;;;;;;;;4972043;28;20198;-85
2023/12/07 00:47:19;;;;;;;6.10;3.05;;;3.20;99.90;;;;;;4985253;28;20183;-85
2023/12/07 00:49:45;;;;;;;8.60;3.40;;;;;;;;;;4991200;28;20225;-85
2023/12/07 00:52:11;;;;;;;10.57;3.97;;;;;;;;;;4978904;28;20187;-84
2023/12/07 00:54:36;;;;;;;6.43;2.70;;;3.20;99.90;;;;;;4981740;28;20484;-84
2023/12/07 00:57:02;;;;;;;6.00;3.13;;;3.20;99.90;;;;;;4983218;28;20507;-84
2023/12/07 00:59:33;;;;;;;7.27;5.27;;;3.90;99.90;;;;;;4987059;28;20226;-85
2023/12/07 01:02:05;;;;;;;5.72;2.10;;;3.20;99.90;;;;;;4969486;28;21014;-85
2023/12/07 01:04:31;;;;;;;5.22;2.97;;;3.10;99.90;;;;;;4985991;28;20187;-85
2023/12/07 01:06:57;;;;;;;10.40;3.60;;;;;;;;;;4985795;28;20183;-85
2023/12/07 01:09:22;;;;;;;9.68;4.72;;;3.10;99.90;;;;;;4985737;28;20503;-85
2023/12/07 01:11:49;;;;;;;7.87;4.47;;;3.10;99.90;;;;;;4986422;28;20210;-85
2023/12/07 01:14:15;;;;;;;3.47;3.17;;;3.10;99.90;;;;;;4973107;28;20183;-86
2023/12/07 01:16:40;;;;;;;5.80;3.50;;;3.10;99.90;;;;;;4989145;28;20262;-85
2023/12/07 01:19:07;;;;;;;4.90;3.30;;;3.10;99.90;;;;;;4988355;28;20450;-85
2023/12/07 01:21:33;;;;;;;5.53;2.35;;;;;;;;;;4972674;28;20577;-85
2023/12/07 01:23:58;;;;;;;7.82;3.83;;;3.10;99.90;;;;;;4989686;28;20653;-85
2023/12/07 01:26:24;;;;;;;3.73;3.13;;;3.10;99.90;;;;;;4984985;28;20190;-86
2023/12/07 01:28:50;;;;;;;6.90;3.40;;;;;;;;;;4980959;28;20186;-85
2023/12/07 01:31:17;;;;;;;3.33;2.50;;;3.10;99.90;;;;;;4971941;28;20956;-85
2023/12/07 01:33:45;;;;;;;4.30;3.10;;;3.00;99.90;;;;;;4988003;28;20835;-86
2023/12/07 01:36:11;;;;;;;7.93;3.35;;;3.00;99.90;;;;;;4983711;28;20295;-85
2023/12/07 01:38:37;;;;;;;6.20;3.22;;;3.00;99.90;;;;;;5046921;28;20188;-85
2023/12/07 01:41:04;;;;;;;7.73;3.10;;;;;;;;;;4982795;28;20218;-85
2023/12/07 01:43:29;;;;;;;7.15;2.92;;;3.10;99.90;;;;;;4983288;28;20219;-86
2023/12/07 01:45:57;;;;;;;6.13;2.83;;;3.10;99.90;;;;;;4967641;28;20197;-86
2023/12/07 01:48:26;;;;;;;4.55;3.05;;;3.10;99.90;;;;;;4986523;28;20192;-87
2023/12/07 01:50:53;;;;;;;7.60;3.78;;;3.20;99.90;;;;;;4985800;28;20202;-85
2023/12/07 01:53:21;;;;;;;16.90;5.28;;;3.20;99.90;;;;;;4982263;28;20200;-87
2023/12/07 01:55:47;;;;;;;10.35;6.05;;;3.20;99.90;;;;;;4985697;28;20228;-87
2023/12/07 01:58:16;;;;;;;5.80;3.50;;;3.20;99.90;;;;;;4986596;28;20184;-87
2023/12/07 02:00:41;;;;;;;7.78;3.75;;;3.20;99.90;;;;;;4993282;28;21067;-86
2023/12/07 02:03:07;;;;;;;11.60;4.80;;;3.20;99.90;;;;;;4982089;28;20259;-86
2023/12/07 02:05:33;;;;;;;10.70;4.60;;;3.20;99.90;;;;;;4985100;28;20662;-87
2023/12/07 02:07:58;;;;;;;4.13;2.53;;;3.20;99.90;;;;;;4968078;28;21083;-87
2023/12/07 02:10:25;;;;;;;8.70;3.87;;;;;;;;;;4975697;28;20203;-86
2023/12/07 02:12:52;;;;;;;9.40;4.28;;;3.10;99.90;;;;;;4988204;28;20179;-85
2023/12/07 02:15:19;;;;;;;4.38;3.10;;;3.00;99.90;;;;;;4995629;28;20186;-85
2023/12/07 02:18:05;;;;;;;5.65;2.50;;;3.00;99.90;;;;;;4985427;28;20708;-85
2023/12/07 02:20:34;;;;;;;7.55;3.50;;;2.80;99.90;;;;;;4989319;28;20206;-84
2023/12/07 02:23:03;;;;;;;7.20;3.00;;;2.70;99.90;;;;;;4986686;28;20183;-84
2023/12/07 02:25:39;;;;;;;10.60;3.88;;;2.50;99.90;;;;;;4981352;28;20180;-83
2023/12/07 02:28:04;;;;;;;10.35;3.33;;;2.50;99.90;;;;;;4989815;28;20558;-84
2023/12/07 02:30:30;;;;;;;6.00;4.23;;;2.40;99.90;;;;;;4989788;28;20218;-83
2023/12/07 02:32:56;;;;;;;10.33;6.10;;;;;;;;;;4996992;28;20186;-83
2023/12/07 02:35:22;;;;;;;9.57;6.90;;;;;;;;;;4987582;28;20251;-84
2023/12/07 02:37:49;;;;;;;7.32;5.20;;;2.10;99.90;;;;;;4982607;28;20431;-84
2023/12/07 02:40:18;;;;;;;12.27;7.15;;;1.90;99.90;;;;;;4986098;28;20199;-85
2023/12/07 02:42:45;;;;;;;9.30;6.50;;;1.90;99.90;;;;;;4976083;28;20211;-85
2023/12/07 02:45:12;;;;;;;9.70;6.93;;;1.80;99.90;;;;;;4987485;28;20175;-85
2023/12/07 02:47:38;;;;;;;7.47;6.25;;;1.80;99.90;;;;;;4982769;28;20176;-86
2023/12/07 02:50:06;;;;;;;13.85;9.68;;;1.70;99.90;;;;;;4969415;28;20836;-85
2023/12/07 02:52:32;;;;;;;9.23;8.07;;;1.70;99.90;;;;;;4971525;28;20209;-85
2023/12/07 02:54:58;;;;;;;7.93;6.50;;;;;;;;;;4991480;28;20188;-84
2023/12/07 02:57:23;;;;;;;9.10;4.60;;;1.60;99.90;;;;;;4990911;28;20175;-84
2023/12/07 02:59:49;;;;;;;9.13;5.60;;;;;;;;;;4987355;28;22761;-83
2023/12/07 03:02:15;;;;;;;5.80;4.50;;;1.40;99.90;;;;;;4987880;28;20180;-85
2023/12/07 03:04:41;;;;;;;8.70;3.90;;;;;;;;;;4990325;28;20524;-84
2023/12/07 03:07:07;;;;;;;7.53;2.70;;;1.30;99.90;;;;;;4989823;28;20168;-84
2023/12/07 03:09:32;;;;;;;7.18;2.95;;;1.30;99.90;;;;;;4988640;28;20467;-84
2023/12/07 03:11:58;;;;;;;2.97;2.17;;;;;;;;;;4990831;28;20180;-84
2023/12/07 03:14:24;;;;;;;3.73;2.60;;;1.20;99.90;;;;;;4987664;28;21639;-83
2023/12/07 03:16:49;;;;;;;1.70;0.97;;;1.10;99.90;;;;;;4975405;28;20485;-82
2023/12/07 03:19:15;;;;;;;6.57;2.87;;;1.00;99.90;;;;;;4986276;28;20224;-82
2023/12/07 03:21:42;;;;;;;3.37;2.27;;;1.00;99.90;;;;;;4985540;28;20209;-83
2023/12/07 03:24:08;;;;;;;23.65;4.13;;;0.90;99.90;;;;;;4983422;28;20632;-83
2023/12/07 03:26:34;;;;;;;2.30;2.20;;;0.90;99.90;;;;;;4971357;28;20180;-82
2023/12/07 03:29:00;;;;;;;1.98;1.48;;;1.40;99.90;;;;;;4983779;28;20470;-85
2023/12/07 03:31:25;;;;;;;6.20;2.00;;;0.90;99.90;;;;;;4967281;28;20728;-86
2023/12/07 03:33:51;;;;;;;6.67;3.47;;;0.80;99.90;;;;;;4973138;28;20188;-86
2023/12/07 03:36:17;;;;;;;2.67;2.30;;;;;;;;;;4975982;28;20251;-85
2023/12/07 03:38:42;;;;;;;4.37;2.90;;;0.80;99.90;;;;;;4983878;28;20707;-85
2023/12/07 03:41:08;;;;;;;6.13;2.80;;;;;;;;;;4967377;28;20463;-85
2023/12/07 03:43:34;;;;;;;3.60;2.47;;;;;;;;;;4995661;28;20490;-86
2023/12/07 03:46:04;;;;;;;6.50;2.70;;;0.60;99.90;;;;;;4991847;28;20438;-85
2023/12/07 03:48:29;;;;;;;3.15;2.08;;;0.60;99.90;;;;;;4988000;28;20465;-86
2023/12/07 03:50:55;;;;;;;2.87;1.40;;;0.50;99.90;;;;;;4983707;28;20195;-85
2023/12/07 03:53:20;;;;;;;6.23;3.50;;;0.50;99.90;;;;;;4971673;28;20190;-84
2023/12/07 03:55:46;;;;;;;2.27;1.73;;;0.50;99.90;;;;;;4976825;28;20187;-84
2023/12/07 03:58:13;;;;;;;11.83;2.07;;;0.50;99.90;;;;;;4994724;28;20211;-84
2023/12/07 04:00:38;;;;;;;6.68;3.08;;;0.50;99.90;;;;;;4974398;28;20211;-84
2023/12/07 04:03:04;;;;;;;3.73;2.00;;;;;;;;;;4992837;28;20325;-83
2023/12/07 04:05:30;;;;;;;4.23;1.90;;;0.40;99.90;;;;;;4989262;28;20230;-84
2023/12/07 04:07:56;;;;;;;7.65;2.92;;;0.20;99.90;;;;;;4991553;28;20441;-84
2023/12/07 04:10:21;;;;;;;5.10;2.57;;;0.30;99.90;;;;;;4992515;28;20215;-83
2023/12/07 04:12:47;;;;;;;1.50;1.10;;;0.30;99.90;;;;;;4973676;28;20179;-84
2023/12/07 04:15:13;;;;;;;2.93;1.73;;;;;;;;;;4970667;28;20164;-84
2023/12/07 04:17:38;;;;;;;2.33;1.90;;;0.20;99.90;;;;;;4989732;28;20184;-84
2023/12/07 04:20:05;;;;;;;2.77;2.53;;;0.20;99.90;;;;;;4989362;28;20509;-84
2023/12/07 04:22:31;;;;;;;3.60;1.85;;;0.10;99.90;;;;;;4968944;28;20680;-83
2023/12/07 04:24:56;;;;;;;2.73;2.03;;;0.10;99.90;;;;;;4988989;28;20171;-84
2023/12/07 04:27:21;;;;;;;6.63;3.03;;;0.10;99.90;;;;;;4982159;28;20442;-84
2023/12/07 04:29:47;;;;;;;2.87;2.20;;;0.10;99.90;;;;;;4992212;28;20206;-84
2023/12/07 04:32:13;;;;;;;8.20;2.80;;;2.80;99.90;;;;;;4995431;28;20184;-85
2023/12/07 04:34:38;;;;;;;3.10;2.33;;;;;;;;;;4990198;28;20209;-84
2023/12/07 04:37:04;;;;;;;7.87;3.10;;;-0.10;99.90;;;;;;4985550;28;20716;-82
2023/12/07 04:39:30;;;;;;;2.20;1.60;;;;;;;;;;4982648;28;20455;-82
2023/12/07 04:41:56;;;;;;;2.42;1.88;;;-0.20;99.90;;;;;;4983991;28;20183;-82
2023/12/07 04:44:21;;;;;;;4.67;1.80;;;-0.10;99.90;;;;;;4985501;28;20172;-82
2023/12/07 04:46:47;;;;;;;4.63;1.37;;;-0.10;99.90;;;;;;4982061;28;20176;-82
2023/12/07 04:49:13;;;;;;;4.53;2.47;;;;;;;;;;4986275;28;20200;-83
2023/12/07 04:51:38;;;;;;;3.92;2.08;;;-0.10;99.90;;;;;;4985180;28;20224;-82
2023/12/07 04:54:04;;;;;;;1.03;0.80;;;-0.20;99.90;;;;;;4983338;28;20180;-82
2023/12/07 04:56:30;;;;;;;6.90;1.97;;;;;;;;;;4966405;28;20277;-82
2023/12/07 04:58:55;;;;;;;3.97;1.93;;;-0.30;99.90;;;;;;4964560;28;20391;-83
2023/12/07 05:01:20;;;;;;;4.83;1.70;;;-0.30;99.90;;;;;;4981867;28;20582;-85
2023/12/07 05:03:46;;;;;;;2.27;2.07;;;-0.30;99.90;;;;;;4956955;28;20612;-84
2023/12/07 05:06:11;;;;;;;4.90;2.20;;;-0.30;99.90;;;;;;4980843;28;20187;-86
2023/12/07 05:08:39;;;;;;;5.50;2.20;;;-0.30;99.90;;;;;;4972172;28;20251;-87
2023/12/07 05:11:06;;;;;;;3.75;1.98;;;-0.30;99.90;;;;;;4987502;28;20793;-87
2023/12/07 05:13:33;;;;;;;3.38;1.63;;;-0.30;99.90;;;;;;4972343;28;20203;-85
2023/12/07 05:15:59;;;;;;;3.35;1.65;;;-0.30;99.90;;;;;;4976253;28;20188;-83
2023/12/07 05:18:25;;;;;;;5.00;2.15;;;-0.30;99.90;;;;;;4981266;28;20310;-85
2023/12/07 05:20:50;;;;;;;3.00;1.77;;;-0.20;99.90;;;;;;4969429;28;20227;-84
2023/12/07 05:23:16;;;;;;;2.47;2.27;;;-0.10;99.90;;;;;;4975603;28;20176;-86
2023/12/07 05:25:42;;;;;;;8.25;2.33;;;0.00;99.90;;;;;;4974249;28;20184;-85
2023/12/07 05:28:08;;;;;;;5.10;2.17;;;0.00;99.90;;;;;;4983266;28;20186;-85
2023/12/07 05:30:33;;;;;;;3.30;1.63;;;0.10;99.90;;;;;;4981004;28;20260;-86
2023/12/07 05:32:58;;;;;;;6.93;3.30;;;0.20;99.90;;;;;;4980175;28;20233;-87
2023/12/07 05:35:24;;;;;;;4.00;2.60;;;;;;;;;;4969458;28;20799;-86
2023/12/07 05:37:50;;;;;;;9.70;3.23;;;0.40;99.90;;;;;;4981127;28;20187;-85
2023/12/07 05:40:16;;;;;;;5.27;2.17;;;;;;;;;;4986288;28;20465;-87
2023/12/07 05:42:41;;;;;;;4.03;2.80;;;0.40;99.90;;;;;;4981777;28;20239;-87
2023/12/07 05:45:09;;;;;;;6.83;2.97;;;0.40;99.90;;;;;;4979255;28;20442;-87
2023/12/07 05:47:35;;;;;;;13.20;4.57;;;0.50;99.90;;;;;;4982116;28;20597;-87
2023/12/07 05:50:03;;;;;;;13.53;8.47;;;0.50;99.90;;;;;;4984838;28;20208;-86
2023/12/07 05:52:28;;;;;;;7.47;4.15;;;0.50;99.90;;;;;;4988402;28;20179;-86
2023/12/07 05:54:54;;;;;;;5.97;3.10;;;0.30;99.90;;;;;;4982543;28;20183;-86
2023/12/07 05:57:20;;;;;;;4.40;2.90;;;;;;;;;;4968987;28;20199;-86
2023/12/07 05:59:45;;;;;;;7.30;3.00;;;0.30;99.90;;;;;;4982327;28;20283;-86
2023/12/07 06:02:11;;;;;;;6.33;3.30;;;;;;;;;;5048921;28;20803;-86
2023/12/07 06:04:37;;;;;;;11.73;2.13;;;0.20;99.90;;;;;;4988214;28;20511;-86
2023/12/07 06:07:03;;;;;;;10.73;3.75;;;0.30;99.90;;;;;;4975194;28;22332;-87
2023/12/07 06:09:29;;;;;;;5.33;3.27;;;0.30;99.90;;;;;;4982704;28;20207;-88
2023/12/07 06:11:55;;;;;;;2.77;2.17;;;;;;;;;;4990118;28;20280;-87
2023/12/07 06:14:22;;;;;;;1.83;0.90;;;0.10;99.90;;;;;;4987867;28;20196;-86
2023/12/07 06:16:48;;;;;;;7.05;2.72;;;0.00;99.90;;;;;;4994434;28;20176;-87
2023/12/07 06:19:14;;;;;;;2.63;1.55;;;-0.20;99.90;;;;;;4979623;28;20207;-86
2023/12/07 06:21:40;;;;;;;3.70;3.20;;;-0.30;99.90;;;;;;4981064;28;20206;-86
2023/12/07 06:24:06;;;;;;;5.07;1.43;;;-0.30;99.90;;;;;;4987551;28;20209;-85
2023/12/07 06:26:32;;;;;;;3.05;2.05;;;-0.30;99.90;;;;;;4990192;28;20190;-87
2023/12/07 06:28:58;;;;;;;2.53;1.80;;;;;;;;;;4981290;28;20180;-86
2023/12/07 06:31:24;;;;;;;5.10;2.38;;;-0.50;99.90;;;;;;4986861;28;20530;-87
2023/12/07 06:33:49;;;;;;;5.17;3.03;;;-0.50;99.90;;;;;;4972234;28;20635;-86
2023/12/07 06:36:22;;;;;;;7.37;3.77;;;-0.50;99.90;;;;;;4983744;28;20191;-87
2023/12/07 06:38:48;;;;;;;14.75;4.82;;;-0.50;99.90;;;;;;4985865;28;20163;-86
2023/12/07 06:41:15;;;;;;;5.83;3.47;;;-0.50;99.90;;;;;;4975568;28;20211;-87
2023/12/07 06:43:41;;;;;;;15.57;8.35;;;0.90;99.90;;;;;;5052400;28;20436;-87
2023/12/07 06:46:06;;;;;;;30.20;7.47;;;-0.60;99.90;;;;;;4970292;28;20190;-86
2023/12/07 06:48:32;;;;;;;10.23;7.97;;;-0.60;99.90;;;;;;4967283;28;20187;-86
2023/12/07 06:50:57;;;;;;;19.03;4.00;;;-0.60;99.90;;;;;;4974797;28;20211;-87
2023/12/07 06:53:23;;;;;;;9.30;5.30;;;-0.60;99.90;;;;;;4968539;28;20184;-87
2023/12/07 06:55:49;;;;;;;3.03;2.30;;;-0.60;99.90;;;;;;4985392;28;20188;-85
2023/12/07 06:58:14;;;;;;;20.77;3.60;;;-0.50;99.90;;;;;;4985743;28;20188;-86
2023/12/07 07:00:40;;;;;;;13.67;4.77;;;-0.60;99.90;;;;;;4983995;28;20648;-85
2023/12/07 07:03:06;;;;;;;6.20;3.10;;;-0.60;99.90;;;;;;4981596;28;20206;-87
2023/12/07 07:05:31;;;;;;;6.50;5.45;;;-0.60;99.90;;;;;;4968927;28;20167;-86
2023/12/07 07:07:57;;;;;;;10.67;5.67;;;;;;;;;;4989394;28;20179;-86
2023/12/07 07:10:24;;;;;;;5.03;3.87;;;-0.70;99.90;;;;;;4986768;28;20235;-87
2023/12/07 07:12:49;;;;;;;12.18;4.53;;;-0.60;99.90;;;;;;4973586;28;20554;-86
2023/12/07 07:15:16;;;;;;;5.70;4.20;;;-0.60;99.90;;;;;;4982772;28;20203;-87
2023/12/07 07:17:42;;;;;;;7.63;3.10;;;-0.70;99.90;;;;;;4982916;28;20183;-87
2023/12/07 07:20:07;;;;;;;12.63;6.60;;;-0.60;99.90;;;;;;4983310;28;20233;-87
2023/12/07 07:22:34;;;;;;;8.90;4.03;;;-0.50;99.90;;;;;;4981940;28;20215;-87
2023/12/07 07:25:00;;;;;;;14.15;4.40;;;-0.50;99.90;;;;;;4983874;28;20920;-87
2023/12/07 07:27:26;;;;;;;5.23;2.90;;;;;;;;;;4981098;28;20193;-86
2023/12/07 07:29:52;;;;;;;25.47;4.90;;;;;;;;;;4964978;28;20488;-87
2023/12/07 07:32:18;;;;;;;16.00;3.30;;;;;;;;;;4980659;28;20422;-87
2023/12/07 07:34:43;;;;;;;12.63;3.07;;;-0.30;99.90;;;;;;4984084;28;20435;-87
2023/12/07 07:37:09;;;;;;;6.10;2.63;;;-0.30;99.90;;;;;;4983119;28;20511;-86
2023/12/07 07:39:34;;;;;;;4.57;2.30;;;-0.30;99.90;;;;;;4965881;28;20222;-86
2023/12/07 07:42:00;;;;;;;29.93;2.97;;;-0.30;99.90;;;;;;4978120;28;20535;-86
2023/12/07 07:44:26;;;;;;;3.07;2.10;;;;;;;;;;4963419;28;20188;-86
2023/12/07 07:46:51;;;;;;;3.17;2.80;;;0.00;99.90;;;;;;4983080;28;20184;-86
2023/12/07 07:49:17;;;;;;;2.90;2.03;;;;;;;;;;4985120;28;20454;-86
2023/12/07 07:51:43;;;;;;;5.63;4.33;;;;;;;;;;4983425;28;20199;-87
2023/12/07 07:54:09;;;;;;;7.00;3.25;;;0.30;99.90;;;;;;4983827;28;20438;-86
2023/12/07 07:56:35;;;;;;;6.93;3.10;;;0.50;99.90;;;;;;4982571;28;20200;-86
2023/12/07 07:59:01;;;;;;;3.38;2.30;;;0.60;99.90;;;;;;4985478;28;20199;-86
2023/12/07 08:01:26;;;;;;;4.47;2.50;;;0.60;99.90;;;;;;4971603;28;20654;-86
2023/12/07 08:03:52;;;;;;;4.77;3.03;;;0.70;99.90;;;;;;4966683;28;20283;-86
2023/12/07 08:06:18;;;;;;;3.63;3.00;;;0.90;99.90;;;;;;4982903;28;20187;-86
2023/12/07 08:08:44;;;;;;;5.28;3.30;;;1.10;99.90;;;;;;4990554;28;20229;-85
2023/12/07 08:11:09;;;;;;;8.63;5.50;;;1.10;99.90;;;;;;4965660;28;20203;-85
2023/12/07 08:13:35;;;;;;;10.33;4.07;;;1.00;99.90;;;;;;4980288;28;20192;-85
2023/12/07 08:16:00;;;;;;;8.93;4.10;;;1.40;99.90;;;;;;4985765;28;21100;-85
2023/12/07 08:18:26;;;;;;;5.70;4.00;;;;;;;;;;4981260;28;20187;-86
2023/12/07 08:20:52;;;;;;;15.20;2.90;;;1.70;99.90;;;;;;4981125;28;20478;-85
2023/12/07 08:23:17;;;;;;;13.60;3.83;;;1.80;99.90;;;;;;4986678;28;20446;-85
2023/12/07 08:25:43;;;;;;;6.60;2.93;;;2.00;99.90;;;;;;4985500;28;20195;-86
2023/12/07 08:28:09;;;;;;;7.40;2.23;;;2.20;99.90;;;;;;4993469;28;20217;-85
2023/12/07 08:30:35;;;;;;;7.77;3.17;;;;;;;;;;4975317;28;20218;-86
2023/12/07 08:33:01;;;;;;;12.23;3.35;;;2.10;99.90;;;;;;4981748;28;20447;-86
2023/12/07 08:35:27;;;;;;;3.77;3.00;;;;;;;;;;4963564;28;20197;-85
2023/12/07 08:37:53;;;;;;;3.80;2.42;;;-0.10;99.90;;;;;;4982228;28;20226;-86
2023/12/07 08:40:19;;;;;;;5.20;3.80;;;;;;;;;;4965738;28;20588;-86
2023/12/07 08:42:46;;;;;;;7.43;3.40;;;2.50;99.90;;;;;;4982205;28;20222;-86
2023/12/07 08:45:13;;;;;;;9.55;2.92;;;2.60;99.90;;;;;;4983034;28;20481;-85
2023/12/07 08:47:39;;;;;;;8.80;4.57;;;2.60;99.90;;;;;;4966610;28;20751;-85
2023/12/07 08:50:05;;;;;;;16.03;6.27;;;3.30;99.90;;;;;;4973798;28;20198;-85
2023/12/07 08:52:31;;;;;;;9.83;5.07;;;;;;;;;;4965301;28;20274;-85
2023/12/07 08:54:57;;;;;;;20.47;8.30;;;;;;;;;;4982306;28;21059;-85
2023/12/07 08:57:22;;;;;;;12.17;7.37;;;4.20;99.90;;;;;;4982756;28;20414;-84
2023/12/07 08:59:48;;;;;;;11.73;7.20;;;;;;;;;;4979303;28;20475;-85
2023/12/07 09:02:14;;;;;;;13.23;7.57;;;4.60;99.90;;;;;;4969280;28;20180;-85
2023/12/07 09:04:39;;;;;;;33.73;10.93;;;5.20;99.90;;;;;;4974779;28;20801;-86
2023/12/07 09:07:05;;;;;;;35.27;12.20;;;6.90;99.90;;;;;;4986879;28;20658;-84
2023/12/07 09:09:32;;;;;;;25.85;13.70;;;;;;;;;;4975279;28;20207;-86
2023/12/07 09:11:58;;;;;;;21.52;10.50;;;;;;;;;;4980590;28;20240;-85
2023/12/07 09:14:23;;;;;;;22.47;7.37;;;8.20;99.90;;;;;;4985985;28;20187;-84
2023/12/07 09:16:49;;;;;;;11.07;7.27;;;8.70;99.90;;;;;;4981130;28;20537;-85
2023/12/07 09:19:14;;;;;;;14.03;5.43;;;8.70;99.90;;;;;;4982592;28;20215;-85
2023/12/07 09:21:40;;;;;;;12.97;5.40;;;8.80;99.90;;;;;;4965312;28;20225;-85
2023/12/07 09:24:06;;;;;;;6.53;3.58;;;8.60;99.90;;;;;;4964273;28;20603;-85
2023/12/07 09:26:32;;;;;;;6.97;3.57;;;8.30;99.90;;;;;;4969016;28;20202;-85
2023/12/07 09:28:58;;;;;;;8.75;4.80;;;7.30;99.90;;;;;;4982614;28;20218;-84
2023/12/07 09:31:23;;;;;;;8.57;5.37;;;7.20;99.90;;;;;;4982170;28;20226;-85
2023/12/07 09:33:49;;;;;;;7.10;4.70;;;6.40;99.90;;;;;;4985922;28;20183;-85
2023/12/07 09:36:19;;;;;;;8.40;5.10;;;4.80;99.90;;;;;;4975652;28;20183;-85
2023/12/07 09:38:45;;;;;;;7.35;5.10;;;4.70;99.90;;;;;;4988920;28;20159;-85
2023/12/07 09:41:11;;;;;;;9.97;4.70;;;4.30;99.90;;;;;;4981769;28;20564;-84
2023/12/07 09:43:37;;;;;;;8.85;3.15;;;3.80;99.90;;;;;;4985683;28;20284;-85
2023/12/07 09:46:02;;;;;;;14.17;4.73;;;3.40;99.90;;;;;;4985413;28;20196;-85
2023/12/07 09:48:28;;;;;;;9.70;5.50;;;3.00;99.90;;;;;;4963583;28;20216;-85
2023/12/07 09:50:55;;;;;;;8.53;5.27;;;3.00;99.90;;;;;;4985711;28;20547;-85
2023/12/07 09:53:21;;;;;;;16.77;6.80;;;2.70;99.90;;;;;;4987047;28;20201;-85
2023/12/07 09:55:47;;;;;;;16.00;7.68;;;2.60;99.90;;;;;;4985596;28;20270;-85
2023/12/07 09:58:13;;;;;;;6.73;5.07;;;;;;;;;;4975493;28;20725;-85
2023/12/07 10:00:38;;;;;;;16.57;8.37;;;2.90;99.90;;;;;;4986958;28;20211;-84
2023/12/07 10:03:07;;;;;;;16.70;7.93;;;3.00;99.90;;;;;;4972046;28;20869;-84
2023/12/07 10:05:34;;;;;;;8.73;5.95;;;3.10;99.90;;;;;;4984448;28;20187;-85
2023/12/07 10:07:59;;;;;;;18.02;6.70;;;3.10;99.90;;;;;;4980513;28;20184;-85
2023/12/07 10:10:25;;;;;;;8.80;5.30;;;3.30;99.90;;;;;;4984125;28;20336;-84
2023/12/07 10:12:56;;;;;;;7.60;5.40;;;3.50;99.90;;;;;;4976164;28;20278;-84
2023/12/07 10:15:23;;;;;;;6.30;3.60;;;3.60;99.90;;;;;;5000557;28;20191;-85
2023/12/07 10:17:54;;;;;;;10.77;5.30;;;3.60;99.90;;;;;;4997980;28;20195;-85
2023/12/07 10:20:24;;;;;;;6.50;4.20;;;3.80;99.90;;;;;;4977643;28;20208;-84
2023/12/07 10:23:04;;;;;;;9.20;4.28;;;4.00;99.90;;;;;;4973433;28;20191;-84
2023/12/07 10:25:31;;;;;;;7.80;3.50;;;4.30;99.90;;;;;;4968221;28;20188;-84
2023/12/07 10:27:57;;;;;;;9.25;4.32;;;4.40;99.90;;;;;;4985935;28;20183;-85
2023/12/07 10:30:25;;;;;;;8.77;4.33;;;4.50;99.90;;;;;;4975799;28;20282;-85
2023/12/07 10:32:51;;;;;;;10.80;4.65;;;4.60;99.90;;;;;;4985368;28;20192;-84
2023/12/07 10:35:18;;;;;;;6.55;4.20;;;4.70;99.90;;;;;;4979442;28;20195;-84
2023/12/07 10:37:44;;;;;;;7.30;5.43;;;4.80;99.90;;;;;;4986675;28;20213;-85
2023/12/07 10:40:10;;;;;;;11.90;4.80;;;4.80;99.90;;;;;;4984368;28;20215;-85
2023/12/07 10:42:37;;;;;;;10.40;4.32;;;4.90;99.90;;;;;;4981198;28;20188;-85
2023/12/07 10:45:06;;;;;;;9.48;4.97;;;5.00;99.90;;;;;;4978126;28;20320;-84
2023/12/07 10:47:38;;;;;;;8.57;4.93;;;5.10;99.90;;;;;;4986839;28;20246;-85
2023/12/07 10:50:10;;;;;;;11.90;4.28;;;5.30;99.90;;;;;;4979732;28;20239;-85
2023/12/07 10:52:43;;;;;;;5.22;3.85;;;5.30;99.90;;;;;;4990070;28;20188;-85
2023/12/07 10:55:16;;;;;;;7.63;3.88;;;5.40;99.90;;;;;;4971238;28;20697;-85
2023/12/07 10:57:43;;;;;;;5.20;3.65;;;5.60;99.90;;;;;;4971812;28;20907;-85
2023/12/07 11:00:10;;;;;;;7.30;3.40;;;5.50;99.90;;;;;;4994358;28;20241;-85
2023/12/07 11:02:37;;;;;;;9.48;4.85;;;5.40;99.90;;;;;;4982426;28;20195;-85
2023/12/07 11:05:06;;;;;;;7.85;5.00;;;5.40;99.90;;;;;;4992176;28;20247;-84
2023/12/07 11:07:54;;;;;;;9.95;3.58;;;5.30;99.90;;;;;;4991413;28;20557;-83
2023/12/07 11:10:38;;;;;;;6.95;3.78;;;5.40;99.90;;;;;;4967595;28;20215;-84
2023/12/07 11:13:35;;;;;;;6.13;4.07;;;5.50;99.90;;;;;;4992739;28;20217;-84
2023/12/07 11:16:01;;;;;;;8.50;4.05;;;5.70;99.90;;;;;;4967914;28;20214;-83
2023/12/07 11:18:28;;;;;;;7.00;2.80;;;5.80;99.90;;;;;;4989392;28;20180;-85
2023/12/07 11:20:55;;;;;;;16.15;4.65;;;7.80;99.90;;;;;;4990613;28;20220;-82
2023/12/07 11:23:21;;;;;;;5.38;3.78;;;6.10;99.90;;;;;;5054653;28;20191;-81
2023/12/07 11:25:48;;;;;;;10.30;4.10;;;6.10;99.90;;;;;;4970965;28;20187;-83
2023/12/07 11:28:14;;;;;;;7.45;3.45;;;6.10;99.90;;;;;;4994254;28;20435;-84
2023/12/07 11:30:45;;;;;;;6.80;3.92;;;5.90;99.90;;;;;;4973243;28;20259;-84
2023/12/07 11:33:12;;;;;;;3.03;2.67;;;5.90;99.90;;;;;;4975075;28;20194;-83
2023/12/07 11:35:59;;;;;;;4.53;1.15;;;5.90;99.90;;;;;;4974631;28;20278;-84
2023/12/07 11:38:25;;;;;;;6.07;2.67;;;5.70;99.90;;;;;;4984540;28;20207;-83
2023/12/07 11:40:50;;;;;;;7.57;3.20;;;5.60;99.90;;;;;;4985245;28;20207;-83
2023/12/07 11:43:40;;;;;;;3.87;2.77;;;5.50;99.90;;;;;;4982021;28;20211;-82
2023/12/07 11:46:10;;;;;;;7.13;2.50;;;5.50;99.90;;;;;;4969967;28;20184;-82
2023/12/07 11:48:35;;;;;;;6.65;2.90;;;5.40;99.90;;;;;;4995304;28;20282;-84
2023/12/07 11:51:04;;;;;;;3.47;2.63;;;5.40;99.90;;;;;;4987504;28;20267;-82
2023/12/07 11:53:34;;;;;;;7.35;3.20;;;5.30;99.90;;;;;;4969376;28;20198;-84
2023/12/07 11:56:02;;;;;;;7.22;2.78;;;5.40;99.90;;;;;;4986927;28;20176;-83
2023/12/07 11:58:28;;;;;;;6.22;3.45;;;5.50;99.90;;;;;;4987903;28;20195;-84
2023/12/07 12:00:56;;;;;;;2.97;2.10;;;;;;;;;;4988092;28;20211;-82
2023/12/07 12:03:22;;;;;;;8.27;4.53;;;5.80;99.90;;;;;;4985085;28;20210;-83
2023/12/07 12:05:48;;;;;;;7.15;3.95;;;5.70;99.90;;;;;;4984106;28;20194;-85
2023/12/07 12:08:14;;;;;;;5.40;2.40;;;5.70;99.90;;;;;;4973876;28;20176;-84
2023/12/07 12:10:42;;;;;;;8.40;4.57;;;5.60;99.90;;;;;;4975055;28;20297;-85
2023/12/07 12:13:08;;;;;;;7.60;3.75;;;5.60;99.90;;;;;;4988216;28;20293;-84
2023/12/07 12:15:34;;;;;;;5.47;2.47;;;5.70;99.90;;;;;;4986747;28;20251;-84
2023/12/07 12:18:00;;;;;;;2.47;1.73;;;5.70;99.90;;;;;;4977133;28;20231;-84
2023/12/07 12:20:27;;;;;;;10.52;3.97;;;5.60;99.90;;;;;;4984986;28;20497;-84
2023/12/07 12:22:53;;;;;;;10.32;4.38;;;;;;;;;;4977421;28;20234;-83
2023/12/07 12:25:25;;;;;;;10.63;3.60;;;2.50;99.90;;;;;;4966621;28;20247;-83
2023/12/07 12:27:52;;;;;;;11.18;4.00;;;;;;;;;;4985063;28;20194;-82
2023/12/07 12:30:18;;;;;;;11.35;3.03;;;5.50;99.90;;;;;;4990019;28;20258;-83
2023/12/07 12:32:44;;;;;;;6.87;4.30;;;5.50;99.90;;;;;;4988608;28;20226;-84
2023/12/07 12:35:11;;;;;;;6.93;3.45;;;5.70;99.90;;;;;;4971700;28;20454;-84
2023/12/07 12:37:38;;;;;;;10.90;4.00;;;5.70;99.90;;;;;;4975016;28;20183;-84
2023/12/07 12:40:07;;;;;;;6.43;3.25;;;5.70;99.90;;;;;;4986861;28;20211;-84
2023/12/07 12:42:33;;;;;;;7.95;2.97;;;5.80;99.90;;;;;;4986106;28;20723;-83
2023/12/07 12:45:00;;;;;;;9.57;4.93;;;5.80;99.90;;;;;;4986728;28;20725;-85
2023/12/07 12:47:26;;;;;;;7.73;3.73;;;5.80;99.90;;;;;;4987417;28;20215;-82
2023/12/07 12:49:52;;;;;;;3.70;2.93;;;;;;;;;;4988648;28;20200;-83
2023/12/07 12:52:17;;;;;;;5.38;2.35;;;5.80;99.90;;;;;;4970118;28;20176;-84
2023/12/07 12:54:43;;;;;;;5.17;2.43;;;5.70;99.90;;;;;;4981106;28;20222;-83
2023/12/07 12:57:10;;;;;;;8.45;2.90;;;;;;;;;;4984953;28;20179;-84
2023/12/07 12:59:35;;;;;;;2.95;2.30;;;5.50;99.90;;;;;;4984824;28;20808;-83
2023/12/07 13:02:04;;;;;;;1.93;1.60;;;5.60;99.90;;;;;;4986557;28;20223;-86
2023/12/07 13:04:30;;;;;;;7.13;4.55;;;5.50;99.90;;;;;;4972335;28;20190;-82
2023/12/07 13:06:56;;;;;;;3.00;2.50;;;5.60;99.90;;;;;;4969940;28;20183;-85